Time;durP1;ratioP1;P1;durP2;ratioP2;P2;SDS_P1;SDS_P2;PMS_P1;PMS_P2;Temp;Humidity;BMP_temperature;BMP_pressure;BME280_temperature;BME280_humidity;BME280_pressure;Samples;Min_cycle;Max_cycle;Signal;HPM_P1;HPM_P2
2021/01/10 00:01:55;;;;;;;4.95;4.05;;;;;;;18.10;44.81;102534.78;5052512;28;20044;-70
2021/01/10 00:04:20;;;;;;;7.80;4.07;;;;;;;18.09;44.98;102537.34;5064064;28;20036;-67
2021/01/10 00:06:47;;;;;;;5.55;3.78;;;;;;;18.06;44.89;102530.31;5079125;28;20441;-69
2021/01/10 00:09:12;;;;;;;4.97;3.50;;;;;;;18.06;45.00;102537.28;5056157;28;20471;-69
2021/01/10 00:11:42;;;;;;;6.35;3.75;;;;;;;18.15;44.72;102535.78;5057951;28;20078;-74
2021/01/10 00:14:07;;;;;;;6.82;3.72;;;;;;;18.24;44.50;102527.25;5051759;28;20036;-74
2021/01/10 00:16:37;;;;;;;5.88;4.00;;;;;;;18.25;44.56;102534.25;5054825;28;20071;-74
2021/01/10 00:19:02;;;;;;;5.47;4.30;;;;;;;18.25;44.30;102534.25;5054621;28;20567;-74
2021/01/10 00:21:37;;;;;;;5.65;3.88;;;;;;;18.30;44.54;102531.75;5025610;28;20120;-74
2021/01/10 00:24:07;;;;;;;6.30;4.35;;;;;;;18.34;44.10;102531.81;5038284;28;20045;-74
2021/01/10 00:26:34;;;;;;;6.13;4.10;;;;;;;18.34;44.27;102533.56;5054617;28;20017;-75
2021/01/10 00:28:59;;;;;;;4.55;3.40;;;;;;;18.31;44.50;102529.13;5055009;28;20482;-73
2021/01/10 00:31:30;;;;;;;5.45;3.92;;;;;;;18.40;44.17;102533.72;5062282;28;20064;-69
2021/01/10 00:33:55;;;;;;;4.60;3.20;;;;;;;18.41;44.19;102530.25;5048025;28;20103;-69
2021/01/10 00:36:21;;;;;;;6.93;4.03;;;;;;;18.32;44.21;102520.44;5041080;28;20475;-70
2021/01/10 00:38:46;;;;;;;8.90;3.97;;;;;;;18.42;44.17;102532.03;5036710;28;20028;-69
2021/01/10 00:41:11;;;;;;;5.05;3.72;;;;;;;18.44;44.19;102525.06;5021016;28;20024;-70
2021/01/10 00:43:36;;;;;;;4.22;3.55;;;;;;;18.45;44.15;102527.72;5024639;28;20033;-69
2021/01/10 00:46:02;;;;;;;4.95;3.58;;;;;;;18.41;44.46;102525.91;5029276;28;20158;-69
2021/01/10 00:48:27;;;;;;;4.78;3.63;;;;;;;18.43;44.32;102520.69;5039217;28;20078;-69
2021/01/10 00:50:53;;;;;;;5.63;3.20;;;;;;;18.49;44.18;102516.44;5025592;28;20102;-69
2021/01/10 00:53:18;;;;;;;5.22;3.78;;;;;;;18.45;44.11;102518.97;5023017;28;20052;-70
2021/01/10 00:55:43;;;;;;;5.45;3.85;;;;;;;18.48;44.29;102522.53;5023223;28;20021;-70
2021/01/10 00:58:09;;;;;;;3.88;2.72;;;;;;;18.50;43.94;102522.59;5017621;28;20040;-69
2021/01/10 01:00:34;;;;;;;5.90;3.45;;;;;;;18.51;44.10;102520.00;5061414;28;20033;-69
2021/01/10 01:03:00;;;;;;;6.03;3.38;;;;;;;18.50;44.21;102522.59;5038285;28;20549;-69
2021/01/10 01:05:25;;;;;;;4.88;3.17;;;;;;;18.52;44.12;102526.13;5032913;28;20043;-69
2021/01/10 01:07:50;;;;;;;4.90;2.90;;;;;;;18.56;44.04;102535.81;4997318;28;20408;-74
2021/01/10 01:10:16;;;;;;;4.53;3.05;;;;;;;18.54;44.03;102524.44;4997135;28;20072;-74
2021/01/10 01:12:41;;;;;;;5.28;3.72;;;;;;;18.53;44.03;102534.03;5021742;28;20092;-70
2021/01/10 01:15:07;;;;;;;4.30;2.80;;;;;;;18.55;43.96;102527.09;5008236;28;20034;-69
2021/01/10 01:17:33;;;;;;;3.63;3.20;;;;;;;18.56;44.14;102534.06;5018541;28;20041;-69
2021/01/10 01:19:58;;;;;;;4.38;2.72;;;;;;;18.54;44.06;102532.28;5015893;28;20111;-69
2021/01/10 01:22:26;;;;;;;2.80;2.28;;;;;;;18.55;44.29;102528.81;4999848;28;20098;-69
2021/01/10 01:24:52;;;;;;;7.18;2.88;;;;;;;18.57;44.05;102527.97;5031997;28;20053;-69
2021/01/10 01:27:17;;;;;;;3.80;2.28;;;;;;;18.56;44.11;102533.22;5014831;28;20292;-70
2021/01/10 01:29:42;;;;;;;4.60;2.47;;;;;;;18.54;44.19;102521.81;5000876;28;20029;-69
2021/01/10 01:32:08;;;;;;;5.22;3.15;;;;;;;18.60;43.97;102527.19;5032144;28;20029;-74
2021/01/10 01:34:33;;;;;;;2.95;2.10;;;;;;;18.59;44.29;102522.81;5000326;28;20037;-69
2021/01/10 01:36:59;;;;;;;4.00;2.50;;;;;;;18.59;44.06;102521.91;5031544;28;20040;-69
2021/01/10 01:39:24;;;;;;;6.13;3.13;;;;;;;18.57;44.15;102519.22;5005713;28;20112;-69
2021/01/10 01:41:49;;;;;;;3.58;2.45;;;;;;;18.63;43.98;102531.63;5031619;28;20492;-69
2021/01/10 01:44:15;;;;;;;3.20;2.33;;;;;;;18.63;44.06;102529.00;5015630;28;20041;-74
2021/01/10 01:46:41;;;;;;;4.25;2.30;;;;;;;18.60;44.21;102524.56;5018656;28;20499;-74
2021/01/10 01:49:10;;;;;;;3.10;2.03;;;;;;;18.65;43.96;102525.56;5015629;28;20056;-74
2021/01/10 01:51:36;;;;;;;4.32;2.08;;;;;;;18.62;44.07;102517.63;4998902;28;20528;-74
2021/01/10 01:54:03;;;;;;;3.05;2.00;;;;;;;18.63;43.89;102522.03;5032050;28;20389;-74
2021/01/10 01:56:29;;;;;;;6.00;3.08;;;;;;;18.63;44.01;102515.91;5032215;28;20026;-74
2021/01/10 01:58:58;;;;;;;3.08;2.10;;;;;;;18.64;43.99;102513.31;5031021;28;20490;-74
2021/01/10 02:01:26;;;;;;;3.70;1.85;;;;;;;18.65;43.93;102514.19;5011903;28;20148;-74
2021/01/10 02:03:57;;;;;;;4.05;2.13;;;;;;;18.65;44.11;102503.72;5032713;28;20026;-74
2021/01/10 02:06:26;;;;;;;3.67;1.70;;;;;;;18.66;44.02;102498.50;5033101;28;20041;-74
2021/01/10 02:08:59;;;;;;;3.00;2.03;;;;;;;18.67;44.02;102504.63;5055369;28;20108;-74
2021/01/10 02:11:26;;;;;;;3.20;2.00;;;;;;;18.67;44.18;102500.28;5059564;28;20163;-73
2021/01/10 02:13:54;;;;;;;2.95;2.15;;;;;;;18.66;43.96;102501.13;5058417;28;20142;-74
2021/01/10 02:16:20;;;;;;;3.05;1.95;;;;;;;18.65;44.07;102499.38;5058704;28;20056;-74
2021/01/10 02:18:46;;;;;;;2.08;1.55;;;;;;;18.67;43.99;102507.25;5059229;28;20040;-74
2021/01/10 02:21:15;;;;;;;2.10;1.48;;;;;;;18.69;43.92;102503.81;5059169;28;20483;-74
2021/01/10 02:23:43;;;;;;;2.72;2.17;;;;;;;18.67;43.90;102496.78;5059635;28;20021;-74
2021/01/10 02:26:09;;;;;;;2.47;1.70;;;;;;;18.67;44.02;102502.91;5058250;28;20036;-74
2021/01/10 02:28:35;;;;;;;2.70;1.80;;;;;;;18.69;43.96;102501.22;5059204;28;20028;-74
2021/01/10 02:31:04;;;;;;;2.72;1.80;;;;;;;18.71;44.06;102501.22;5060255;28;20028;-74
2021/01/10 02:34:07;;;;;;;4.20;2.20;;;;;;;18.71;44.02;102498.59;5059333;28;20025;-74
2021/01/10 02:36:39;;;;;;;3.03;1.50;;;;;;;18.69;44.09;102490.72;5000862;28;20114;-74
2021/01/10 02:39:15;;;;;;;2.58;1.90;;;;;;;18.71;43.81;102488.09;5002163;28;20085;-74
2021/01/10 02:41:45;;;;;;;1.88;1.27;;;;;;;18.70;44.14;102483.72;5035131;28;20036;-74
2021/01/10 02:44:21;;;;;;;2.63;1.45;;;;;;;18.70;44.06;102487.22;5062889;28;20020;-74
2021/01/10 02:46:50;;;;;;;2.55;1.55;;;;;;;18.74;43.82;102490.78;5057955;28;20045;-74
2021/01/10 02:49:16;;;;;;;3.28;1.90;;;;;;;18.73;43.89;102482.03;5061141;28;20056;-74
2021/01/10 02:51:41;;;;;;;1.75;1.30;;;;;;;18.73;44.05;102489.03;5074411;28;20039;-74
2021/01/10 02:54:07;;;;;;;2.30;1.33;;;;;;;18.75;43.92;102484.69;5063944;28;20039;-74
2021/01/10 02:56:37;;;;;;;2.17;1.23;;;;;;;18.71;43.80;102475.88;5057772;28;20078;-74
2021/01/10 02:59:04;;;;;;;2.47;1.42;;;;;;;18.73;44.01;102483.78;5059752;28;20086;-74
2021/01/10 03:01:31;;;;;;;2.78;1.40;;;;;;;18.75;44.06;102482.97;5059303;28;20029;-74
2021/01/10 03:03:57;;;;;;;3.35;1.77;;;;;;;18.73;43.87;102474.19;5056646;28;20025;-74
2021/01/10 03:06:22;;;;;;;1.60;1.02;;;;;;;18.75;44.01;102476.84;5058592;28;20518;-73
2021/01/10 03:08:49;;;;;;;3.03;1.20;;;;;;;18.74;44.00;102475.94;5042253;28;20028;-73
2021/01/10 03:11:15;;;;;;;2.17;1.30;;;;;;;18.79;43.93;102481.31;5042988;28;20044;-73
2021/01/10 03:13:40;;;;;;;3.45;1.20;;;;;;;18.73;43.85;102468.94;5041118;28;20124;-74
2021/01/10 03:16:07;;;;;;;2.42;1.13;;;;;;;18.76;43.94;102473.38;5059359;28;20049;-74
2021/01/10 03:18:32;;;;;;;2.25;1.50;;;;;;;18.77;43.93;102475.13;5057874;28;20037;-74
2021/01/10 03:20:58;;;;;;;2.42;1.38;;;;;;;18.79;44.03;102465.56;5037999;28;20443;-74
2021/01/10 03:23:23;;;;;;;2.95;1.35;;;;;;;18.76;43.97;102469.00;5021252;28;20086;-74
2021/01/10 03:25:48;;;;;;;0.98;0.88;;;;;;;18.76;43.88;102470.75;5055376;28;20108;-74
2021/01/10 03:28:14;;;;;;;2.88;1.40;;;;;;;18.78;43.86;102462.06;5055622;28;20387;-74
2021/01/10 03:30:39;;;;;;;2.20;1.10;;;;;;;18.79;44.06;102465.56;5037755;28;20494;-74
2021/01/10 03:33:05;;;;;;;1.73;1.25;;;;;;;18.79;44.00;102462.94;5021353;28;20510;-74
2021/01/10 03:35:34;;;;;;;1.55;1.00;;;;;;;18.84;43.80;102456.03;5037492;28;20025;-74
2021/01/10 03:38:00;;;;;;;1.60;1.20;;;;;;;18.84;43.74;102458.66;5054500;28;20029;-74
2021/01/10 03:40:25;;;;;;;2.05;1.27;;;;;;;18.80;43.84;102456.84;5055352;28;20029;-74
2021/01/10 03:42:50;;;;;;;4.25;1.25;;;;;;;18.83;43.89;102464.75;5020952;28;20068;-74
2021/01/10 03:45:17;;;;;;;2.03;1.17;;;;;;;18.81;43.88;102456.00;5054945;28;20037;-74
2021/01/10 03:47:43;;;;;;;2.63;1.13;;;;;;;18.82;44.07;102463.03;5009668;28;20036;-69
2021/01/10 03:50:09;;;;;;;1.50;1.00;;;;;;;18.82;44.03;102461.28;5054847;28;20029;-70
2021/01/10 03:52:34;;;;;;;1.88;1.13;;;;;;;18.82;43.95;102457.78;5038024;28;20411;-69
2021/01/10 03:55:00;;;;;;;3.92;1.08;;;;;;;18.81;43.84;102458.63;5036955;28;20029;-69
2021/01/10 03:57:25;;;;;;;1.42;1.00;;;;;;;18.81;44.02;102454.28;5037016;28;20078;-69
2021/01/10 03:59:51;;;;;;;1.88;1.10;;;;;;;18.84;43.60;102456.03;5040880;28;20033;-70
2021/01/10 04:02:16;;;;;;;2.80;1.00;;;;;;;18.84;44.02;102459.53;5019776;28;20482;-69
2021/01/10 04:04:42;;;;;;;1.73;1.23;;;;;;;18.81;43.88;102459.50;5052978;28;20029;-69
2021/01/10 04:07:07;;;;;;;2.65;1.58;;;;;;;18.84;43.99;102458.66;5053016;28;20460;-69
2021/01/10 04:09:34;;;;;;;2.08;0.93;;;;;;;18.83;43.79;102454.28;5033598;28;20022;-69
2021/01/10 04:11:59;;;;;;;1.33;0.82;;;;;;;18.83;44.00;102452.53;5053020;28;20029;-69
2021/01/10 04:14:24;;;;;;;2.63;1.83;;;;;;;18.83;44.00;102451.66;5039111;28;20040;-69
2021/01/10 04:16:52;;;;;;;1.88;1.23;;;;;;;18.85;43.86;102450.84;5034623;28;20438;-69
2021/01/10 04:19:17;;;;;;;2.92;1.27;;;;;;;18.83;43.92;102447.28;5052000;28;20029;-69
2021/01/10 04:21:43;;;;;;;1.20;1.00;;;;;;;18.87;44.00;102449.13;5053826;28;20025;-70
2021/01/10 04:24:08;;;;;;;1.27;0.90;;;;;;;18.87;43.99;102446.50;5051651;28;20411;-69
2021/01/10 04:26:37;;;;;;;1.42;1.00;;;;;;;18.88;43.77;102456.13;5050772;28;20376;-69
2021/01/10 04:29:04;;;;;;;1.40;1.10;;;;;;;18.82;43.90;102447.28;5052305;28;20037;-75
2021/01/10 04:31:29;;;;;;;1.50;0.80;;;;;;;18.82;44.09;102448.19;5051432;28;20029;-74
2021/01/10 04:33:54;;;;;;;1.20;0.80;;;;;;;18.78;44.09;102443.72;5054898;28;20028;-74
2021/01/10 04:36:20;;;;;;;1.88;0.90;;;;;;;18.76;44.07;102444.53;5052454;28;20112;-74
2021/01/10 04:38:45;;;;;;;1.63;1.15;;;;;;;18.71;44.09;102436.56;5051801;28;20112;-74
2021/01/10 04:41:15;;;;;;;1.42;1.17;;;;;;;18.71;44.30;102444.44;5053786;28;20029;-74
2021/01/10 04:43:41;;;;;;;1.10;0.70;;;;;;;18.66;44.31;102437.34;5054296;28;20028;-74
2021/01/10 04:46:07;;;;;;;1.33;0.85;;;;;;;18.68;44.16;102441.78;5053676;28;20028;-74
2021/01/10 04:48:33;;;;;;;1.45;0.88;;;;;;;18.64;44.23;102434.72;5053287;28;20037;-69
2021/01/10 04:50:59;;;;;;;2.33;0.85;;;;;;;18.62;44.04;102433.78;5032185;28;20042;-69
2021/01/10 04:53:26;;;;;;;2.22;0.90;;;;;;;18.61;44.47;102425.91;5032802;28;20032;-69
2021/01/10 04:55:57;;;;;;;1.55;0.80;;;;;;;18.60;44.21;102426.75;5051375;28;20892;-69
2021/01/10 04:58:27;;;;;;;1.48;0.70;;;;;;;18.55;44.35;102419.66;5052481;28;20480;-70
2021/01/10 05:00:53;;;;;;;2.08;0.98;;;;;;;18.57;44.24;102428.41;5052706;28;20025;-74
2021/01/10 05:03:23;;;;;;;1.55;0.95;;;;;;;18.55;44.02;102422.28;5052120;28;20529;-74
2021/01/10 05:05:49;;;;;;;1.05;0.73;;;;;;;18.57;44.33;102422.28;5047122;28;20128;-74
2021/01/10 05:08:15;;;;;;;1.85;0.93;;;;;;;18.55;44.33;102418.78;5033240;28;20064;-74
2021/01/10 05:10:40;;;;;;;1.40;0.80;;;;;;;18.51;44.72;102412.59;5018443;28;20029;-74
2021/01/10 05:13:06;;;;;;;1.27;0.70;;;;;;;18.51;44.25;102407.34;5042798;28;20045;-70
2021/01/10 05:15:32;;;;;;;2.25;1.75;;;;;;;18.51;44.46;102409.97;5001656;28;20013;-69
2021/01/10 05:17:58;;;;;;;1.10;0.77;;;;;;;18.49;44.45;102410.78;5016082;28;20388;-69
2021/01/10 05:20:26;;;;;;;8.25;1.25;;;;;;;18.47;44.46;102410.75;5032303;28;20507;-69
2021/01/10 05:22:51;;;;;;;1.42;0.60;;;;;;;18.45;44.49;102406.31;5031990;28;20029;-69
2021/01/10 05:25:17;;;;;;;1.15;0.73;;;;;;;18.44;44.31;102407.19;5014377;28;20387;-69
2021/01/10 05:27:45;;;;;;;0.93;0.70;;;;;;;18.43;44.54;102411.56;5032160;28;20029;-69
2021/01/10 05:30:11;;;;;;;1.58;0.90;;;;;;;18.45;44.23;102395.84;5015859;28;20053;-69
2021/01/10 05:32:37;;;;;;;0.80;0.60;;;;;;;18.44;44.25;102400.19;5030882;28;20043;-69
2021/01/10 05:35:03;;;;;;;2.28;0.90;;;;;;;18.43;44.54;102401.09;5000512;28;20146;-69
2021/01/10 05:37:29;;;;;;;1.50;0.82;;;;;;;18.43;44.42;102397.59;5031372;28;20087;-69
2021/01/10 05:39:55;;;;;;;0.88;0.65;;;;;;;18.41;44.57;102394.03;5005656;28;20135;-69
2021/01/10 05:42:27;;;;;;;1.67;0.85;;;;;;;18.40;44.46;102398.41;5015024;28;20067;-69
2021/01/10 05:44:53;;;;;;;1.33;0.80;;;;;;;18.40;44.20;102392.28;5016912;28;20433;-69
2021/01/10 05:47:19;;;;;;;2.10;0.68;;;;;;;18.40;44.45;102389.66;5033378;28;20080;-69
2021/01/10 05:49:46;;;;;;;0.90;0.50;;;;;;;18.38;44.40;102392.25;5020139;28;20033;-69
2021/01/10 05:52:12;;;;;;;1.60;0.90;;;;;;;18.33;44.52;102375.53;5032765;28;20029;-69
2021/01/10 05:54:40;;;;;;;1.27;0.68;;;;;;;18.36;44.37;102382.59;5002702;28;20113;-69
2021/01/10 05:57:11;;;;;;;0.80;0.55;;;;;;;18.37;44.42;102390.47;5033925;28;20022;-70
2021/01/10 05:59:49;;;;;;;1.08;0.63;;;;;;;18.33;44.37;102391.25;5016340;28;20052;-69
2021/01/10 06:02:28;;;;;;;1.95;0.77;;;;;;;18.34;44.01;102390.41;4994104;28;20349;-69
2021/01/10 06:05:13;;;;;;;2.58;0.68;;;;;;;18.35;44.41;102399.16;5017809;28;20032;-69
2021/01/10 06:07:39;;;;;;;1.45;0.85;;;;;;;18.32;44.30;102396.44;5047754;28;20102;-69
2021/01/10 06:10:06;;;;;;;1.45;1.00;;;;;;;18.33;44.18;102406.06;5050698;28;20028;-69
2021/01/10 06:12:32;;;;;;;1.90;0.55;;;;;;;18.31;44.19;102392.94;5056910;28;20029;-69
2021/01/10 06:15:17;;;;;;;0.60;0.55;;;;;;;18.33;44.11;102395.59;5049571;28;20066;-70
2021/01/10 06:17:46;;;;;;;2.08;0.80;;;;;;;18.33;44.34;102391.25;5048845;28;20483;-69
2021/01/10 06:20:27;;;;;;;1.15;0.63;;;;;;;18.30;44.62;102400.81;5047177;28;20036;-69
2021/01/10 06:22:55;;;;;;;0.82;0.57;;;;;;;18.28;44.07;102403.38;5047592;28;20112;-69
2021/01/10 06:25:25;;;;;;;1.60;0.60;;;;;;;18.27;44.11;102396.38;5050547;28;20558;-69
2021/01/10 06:28:02;;;;;;;1.10;0.70;;;;;;;18.28;44.28;102407.75;5049408;28;20033;-69
2021/01/10 06:30:32;;;;;;;2.28;1.00;;;;;;;18.26;44.38;102399.84;5058537;28;20021;-69
2021/01/10 06:33:20;;;;;;;0.70;0.55;;;;;;;18.27;44.27;102411.22;5033598;28;20032;-69
2021/01/10 06:35:51;;;;;;;1.02;0.60;;;;;;;18.25;44.41;102411.19;5046408;28;20067;-69
2021/01/10 06:38:22;;;;;;;1.33;0.80;;;;;;;18.24;44.16;102408.53;5051913;28;20036;-69
2021/01/10 06:41:05;;;;;;;1.48;0.95;;;;;;;18.22;44.29;102413.72;5053329;28;20031;-69
2021/01/10 06:43:30;;;;;;;1.45;0.90;;;;;;;18.24;44.20;102417.25;5053399;28;20135;-69
2021/01/10 06:45:57;;;;;;;2.45;0.55;;;;;;;18.24;44.36;102413.75;5053482;28;20056;-69
2021/01/10 06:48:26;;;;;;;1.42;0.77;;;;;;;18.22;44.27;102413.72;5052602;28;20029;-69
2021/01/10 06:50:52;;;;;;;1.15;0.60;;;;;;;18.20;44.34;102416.31;5047628;28;20043;-74
2021/01/10 06:53:17;;;;;;;3.58;1.48;;;;;;;18.25;44.19;102418.16;5056060;28;20029;-74
2021/01/10 06:55:46;;;;;;;1.45;0.80;;;;;;;18.34;43.96;102413.97;5059368;28;20029;-74
2021/01/10 06:58:11;;;;;;;0.95;0.80;;;;;;;18.35;43.94;102420.97;5057090;28;20055;-74
2021/01/10 07:00:57;;;;;;;2.88;0.82;;;;;;;18.35;44.07;102428.84;5060721;28;20417;-74
2021/01/10 07:03:26;;;;;;;0.77;0.70;;;;;;;18.39;43.98;102419.31;5053428;28;20040;-74
2021/01/10 07:06:11;;;;;;;2.33;1.10;;;;;;;18.44;44.04;102423.78;5055684;28;20033;-74
2021/01/10 07:08:41;;;;;;;1.00;0.75;;;;;;;18.45;43.81;102433.41;5055612;28;20440;-74
2021/01/10 07:11:21;;;;;;;2.38;1.33;;;;;;;18.48;43.76;102432.59;5062796;28;20075;-74
2021/01/10 07:13:47;;;;;;;4.00;0.70;;;;;;;18.56;43.88;102433.66;5044970;28;20036;-73
2021/01/10 07:16:18;;;;;;;1.23;0.85;;;;;;;18.58;43.70;102429.31;5044282;28;20032;-77
2021/01/10 07:18:54;;;;;;;1.85;1.48;;;;;;;18.59;44.17;102441.56;5055774;28;20096;-69
2021/01/10 07:21:30;;;;;;;1.92;0.93;;;;;;;18.62;43.93;102439.03;5053528;28;20025;-76
2021/01/10 07:24:16;;;;;;;0.75;0.70;;;;;;;18.64;44.03;102436.44;5053223;28;20496;-75
2021/01/10 07:26:55;;;;;;;1.45;0.77;;;;;;;18.62;44.50;102425.94;5054054;28;20075;-75
2021/01/10 07:29:34;;;;;;;1.58;1.08;;;;;;;18.63;44.29;102429.44;5055395;28;20101;-75
2021/01/10 07:32:12;;;;;;;5.32;0.93;;;;;;;18.64;44.18;102428.56;5054431;28;20025;-76
2021/01/10 07:34:58;;;;;;;2.35;1.80;;;;;;;18.63;44.24;102429.44;5050553;28;20056;-75
2021/01/10 07:37:26;;;;;;;1.60;0.82;;;;;;;18.63;44.67;102427.69;5045077;28;20116;-75
2021/01/10 07:39:53;;;;;;;1.23;0.70;;;;;;;18.67;44.09;102434.78;5056884;28;20043;-77
2021/01/10 07:42:20;;;;;;;1.70;1.25;;;;;;;18.64;44.31;102424.22;5036259;28;20053;-69
2021/01/10 07:44:49;;;;;;;1.30;0.80;;;;;;;18.65;44.30;102426.00;5055054;28;20478;-69
2021/01/10 07:47:35;;;;;;;1.17;0.80;;;;;;;18.69;44.37;102429.56;5051511;28;20025;-69
2021/01/10 07:50:13;;;;;;;1.25;0.70;;;;;;;18.66;44.23;102419.00;5041926;28;20029;-76
2021/01/10 07:52:42;;;;;;;0.93;0.70;;;;;;;18.68;44.34;102422.56;5053615;28;20118;-77
2021/01/10 07:55:17;;;;;;;1.50;0.95;;;;;;;18.70;44.25;102426.94;5054875;28;20029;-75
2021/01/10 07:57:53;;;;;;;1.77;0.75;;;;;;;18.71;44.14;102420.84;5055462;28;20043;-78
2021/01/10 08:00:30;;;;;;;1.42;0.90;;;;;;;18.75;44.24;102427.94;5041523;28;20053;-75
2021/01/10 08:03:06;;;;;;;4.55;1.08;;;;;;;18.77;44.25;102427.97;5054170;28;20371;-75
2021/01/10 08:05:40;;;;;;;1.00;0.70;;;;;;;18.75;44.10;102417.44;5055309;28;20032;-75
2021/01/10 08:08:07;;;;;;;0.93;0.63;;;;;;;18.77;44.25;102426.22;5033253;28;20036;-75
2021/01/10 08:10:43;;;;;;;1.20;0.80;;;;;;;18.77;44.31;102425.34;5031150;28;20038;-75
2021/01/10 08:13:29;;;;;;;1.55;0.85;;;;;;;18.81;44.33;102424.56;5040236;28;20473;-74
2021/01/10 08:15:56;;;;;;;1.38;0.80;;;;;;;18.78;44.36;102425.38;5018268;28;20025;-75
2021/01/10 08:18:23;;;;;;;2.28;0.80;;;;;;;18.79;44.37;102426.25;5033993;28;20468;-75
2021/01/10 08:20:52;;;;;;;1.98;1.08;;;;;;;18.83;44.20;102428.06;5041106;28;20549;-75
2021/01/10 08:23:19;;;;;;;0.95;0.80;;;;;;;18.83;44.23;102425.44;5017074;28;20030;-75
2021/01/10 08:25:45;;;;;;;1.02;0.73;;;;;;;18.81;44.33;102441.16;5043771;28;20034;-75
2021/01/10 08:28:18;;;;;;;1.52;0.70;;;;;;;18.85;44.29;102440.34;5035540;28;20030;-75
2021/01/10 08:30:44;;;;;;;1.23;0.70;;;;;;;18.90;44.06;102437.81;5015881;28;20029;-75
2021/01/10 08:33:19;;;;;;;1.45;0.80;;;;;;;18.90;44.08;102440.44;5037117;28;20127;-75
2021/01/10 08:35:46;;;;;;;1.42;1.00;;;;;;;18.93;44.07;102445.75;5028692;28;20030;-75
2021/01/10 08:38:12;;;;;;;0.88;0.57;;;;;;;18.99;43.88;102450.22;5017549;28;20083;-75
2021/01/10 08:40:37;;;;;;;5.38;1.27;;;;;;;18.95;43.57;102445.78;5030284;28;20034;-75
2021/01/10 08:43:03;;;;;;;2.75;1.25;;;;;;;18.92;43.88;102455.34;5034065;28;20056;-75
2021/01/10 08:45:30;;;;;;;3.78;1.42;;;;;;;18.94;43.94;102450.16;5022481;28;20021;-76
2021/01/10 08:47:55;;;;;;;4.25;2.13;;;;;;;19.01;43.61;102452.00;5028463;28;20044;-75
2021/01/10 08:50:22;;;;;;;7.22;1.38;;;;;;;18.98;43.67;102445.81;5000367;28;20025;-70
2021/01/10 08:52:52;;;;;;;3.83;1.58;;;;;;;19.02;43.93;102453.78;5033068;28;20071;-72
2021/01/10 08:55:31;;;;;;;7.38;2.40;;;;;;;19.07;43.47;102451.25;5013483;28;20460;-72
2021/01/10 08:57:56;;;;;;;10.32;2.53;;;;;;;19.02;43.20;102445.91;5026182;28;20369;-73
2021/01/10 09:00:22;;;;;;;5.53;1.83;;;;;;;19.02;43.47;102459.03;5014726;28;20502;-73
2021/01/10 09:02:47;;;;;;;9.75;2.65;;;;;;;19.03;43.47;102455.53;5000929;28;20082;-74
2021/01/10 09:05:23;;;;;;;5.07;1.90;;;;;;;19.03;43.56;102445.06;5033303;28;20361;-76
2021/01/10 09:07:52;;;;;;;6.10;1.98;;;;;;;19.03;43.66;102444.19;5049128;28;20455;-73
2021/01/10 09:10:21;;;;;;;8.20;2.20;;;;;;;19.12;43.72;102445.22;5039813;28;20063;-73
2021/01/10 09:12:50;;;;;;;3.83;2.03;;;;;;;19.13;43.35;102448.72;5052978;28;20567;-74
2021/01/10 09:15:23;;;;;;;3.13;1.70;;;;;;;19.07;43.76;102438.13;5067918;28;20491;-74
2021/01/10 09:18:11;;;;;;;6.53;2.17;;;;;;;19.09;43.76;102445.16;5053584;28;20043;-74
2021/01/10 09:20:48;;;;;;;6.85;2.45;;;;;;;19.10;43.71;102446.03;5050911;28;20032;-73
2021/01/10 09:23:16;;;;;;;5.32;2.13;;;;;;;19.05;43.57;102438.09;5046888;28;20025;-74
2021/01/10 09:25:42;;;;;;;3.97;2.00;;;;;;;19.05;43.65;102429.34;5053524;28;20041;-73
2021/01/10 09:28:16;;;;;;;5.65;1.98;;;;;;;19.15;43.67;102440.03;5052599;28;20372;-73
2021/01/10 09:30:44;;;;;;;4.15;2.03;;;;;;;19.10;43.50;102432.94;5051954;28;20021;-69
2021/01/10 09:33:10;;;;;;;6.30;2.47;;;;;;;19.12;43.59;102437.34;5054278;28;21004;-69
2021/01/10 09:35:46;;;;;;;8.10;2.83;;;;;;;19.11;43.62;102446.06;5047771;28;20028;-69
2021/01/10 09:38:14;;;;;;;10.38;3.13;;;;;;;19.10;43.35;102446.91;5051750;28;20025;-69
2021/01/10 09:41:09;;;;;;;3.88;1.92;;;;;;;19.10;43.67;102446.91;5050685;28;20866;-69
2021/01/10 09:43:46;;;;;;;4.22;2.00;;;;;;;19.17;43.31;102448.81;5052618;28;20025;-69
2021/01/10 09:46:24;;;;;;;6.90;1.98;;;;;;;19.16;43.55;102444.41;5050868;28;20120;-69
2021/01/10 09:49:00;;;;;;;8.50;2.22;;;;;;;19.15;43.58;102441.78;5052026;28;20033;-68
2021/01/10 09:52:03;;;;;;;5.78;2.35;;;;;;;19.29;43.23;102442.91;5050100;28;20029;-69
2021/01/10 09:54:30;;;;;;;7.30;1.80;;;;;;;19.25;43.20;102441.06;5032342;28;20045;-69
2021/01/10 09:56:57;;;;;;;6.15;1.80;;;;;;;19.24;43.35;102444.53;5047869;28;20379;-68
2021/01/10 09:59:32;;;;;;;3.30;1.67;;;;;;;19.30;42.90;102443.78;5051195;28;20053;-68
2021/01/10 10:01:59;;;;;;;5.72;1.92;;;;;;;19.28;42.97;102443.75;5047924;28;20032;-69
2021/01/10 10:04:28;;;;;;;5.70;2.17;;;;;;;19.25;43.04;102436.72;5049719;28;20032;-69
2021/01/10 10:06:54;;;;;;;4.88;2.10;;;;;;;19.32;43.10;102442.06;5033953;28;20052;-69
2021/01/10 10:09:20;;;;;;;7.57;1.85;;;;;;;19.25;43.02;102435.81;5049378;28;20017;-68
2021/01/10 10:11:46;;;;;;;5.45;2.50;;;;;;;19.24;42.82;102439.31;5032926;28;20091;-70
2021/01/10 10:14:13;;;;;;;2.83;1.70;;;;;;;19.24;43.26;102442.81;5048728;28;20024;-71
2021/01/10 10:16:40;;;;;;;6.38;2.03;;;;;;;19.23;43.33;102432.28;5052199;28;20476;-72
2021/01/10 10:19:05;;;;;;;6.20;2.88;;;;;;;19.23;43.61;102434.91;5053257;28;20055;-74
2021/01/10 10:21:31;;;;;;;6.30;1.90;;;;;;;19.23;43.81;102427.03;5034247;28;20475;-76
2021/01/10 10:23:56;;;;;;;3.70;1.50;;;;;;;19.24;44.00;102427.06;5053847;28;20036;-75
2021/01/10 10:26:22;;;;;;;2.92;1.55;;;;;;;19.25;43.80;102428.84;5052019;28;20068;-75
2021/01/10 10:28:47;;;;;;;4.50;1.95;;;;;;;19.23;44.18;102440.16;5053760;28;20567;-76
2021/01/10 10:31:13;;;;;;;4.10;2.63;;;;;;;19.20;44.32;102433.13;5058471;28;20056;-75
2021/01/10 10:33:39;;;;;;;5.03;1.85;;;;;;;19.19;44.28;102428.75;5059418;28;20036;-75
2021/01/10 10:36:05;;;;;;;2.60;1.70;;;;;;;19.21;44.64;102434.03;5057713;28;20021;-75
2021/01/10 10:38:31;;;;;;;2.42;1.67;;;;;;;19.21;44.86;102432.25;5041505;28;20036;-75
2021/01/10 10:40:56;;;;;;;3.40;2.15;;;;;;;19.24;44.66;102428.81;5058124;28;20032;-75
2021/01/10 10:43:22;;;;;;;2.38;1.25;;;;;;;19.23;44.75;102424.41;5059711;28;20116;-76
2021/01/10 10:45:47;;;;;;;5.43;1.60;;;;;;;19.19;44.82;102427.88;5055092;28;20163;-75
2021/01/10 10:48:12;;;;;;;2.90;1.88;;;;;;;19.23;44.89;102421.78;5056478;28;20042;-75
2021/01/10 10:50:38;;;;;;;3.40;1.77;;;;;;;19.21;44.91;102421.75;5038904;28;20186;-76
2021/01/10 10:53:05;;;;;;;1.92;1.25;;;;;;;19.19;44.82;102417.38;5042662;28;20056;-76
2021/01/10 10:55:34;;;;;;;3.28;1.67;;;;;;;19.22;45.02;102420.03;5053630;28;20029;-76
2021/01/10 10:57:59;;;;;;;2.58;1.33;;;;;;;19.22;44.96;102420.03;5056550;28;20036;-75
2021/01/10 11:00:25;;;;;;;3.30;1.77;;;;;;;19.19;45.29;102413.00;5057639;28;20164;-76
2021/01/10 11:02:50;;;;;;;3.38;1.48;;;;;;;19.22;45.11;102423.53;5054334;28;20056;-75
2021/01/10 11:05:16;;;;;;;2.38;1.52;;;;;;;19.24;45.36;102423.56;5046042;28;20057;-75
2021/01/10 11:07:41;;;;;;;2.58;1.83;;;;;;;19.21;45.18;102426.16;5063844;28;20112;-76
2021/01/10 11:10:07;;;;;;;2.55;1.30;;;;;;;19.21;45.08;102413.03;5044904;28;20036;-77
2021/01/10 11:12:33;;;;;;;1.85;1.20;;;;;;;19.24;45.48;102424.44;5044799;28;20475;-76
2021/01/10 11:15:00;;;;;;;3.70;1.42;;;;;;;19.24;45.36;102423.56;5060926;28;20483;-77
2021/01/10 11:17:25;;;;;;;2.30;1.45;;;;;;;19.27;45.49;102423.63;5037858;28;20020;-76
2021/01/10 11:19:51;;;;;;;2.95;1.65;;;;;;;19.28;45.32;102415.78;5041342;28;20047;-76
2021/01/10 11:22:17;;;;;;;2.35;1.40;;;;;;;19.25;45.30;102420.09;5061524;28;20033;-74
2021/01/10 11:24:43;;;;;;;2.50;1.40;;;;;;;19.25;45.30;102420.97;5058272;28;20474;-76
2021/01/10 11:27:10;;;;;;;4.53;1.80;;;;;;;19.28;45.49;102417.53;5043200;28;20029;-76
2021/01/10 11:29:35;;;;;;;5.07;1.50;;;;;;;19.28;45.29;102413.16;5040824;28;20039;-76
2021/01/10 11:32:00;;;;;;;2.78;1.40;;;;;;;19.27;45.45;102421.88;5044950;28;20032;-75